Time;durP1;ratioP1;P1;durP2;ratioP2;P2;SDS_P1;SDS_P2;PMS_P1;PMS_P2;Temp;Humidity;BMP_temperature;BMP_pressure;BME280_temperature;BME280_humidity;BME280_pressure;Samples;Min_cycle;Max_cycle;Signal;HPM_P1;HPM_P2
2021/04/02 00:00:50;;;;;;;2.93;1.93;;;25.00;37.70;;;;;;5083402;28;20801;-67
2021/04/02 00:03:24;;;;;;;3.83;2.25;;;25.00;37.70;;;;;;5098326;28;20277;-67
2021/04/02 00:05:50;;;;;;;2.45;1.52;;;25.00;37.70;;;;;;5099974;28;20140;-67
2021/04/02 00:08:16;;;;;;;2.83;1.60;;;25.00;37.70;;;;;;5086221;28;20123;-66
2021/04/02 00:10:49;;;;;;;3.03;1.88;;;25.00;38.20;;;;;;5087189;28;20133;-66
2021/04/02 00:13:17;;;;;;;3.22;1.80;;;25.10;37.70;;;;;;5064044;28;20119;-67
2021/04/02 00:15:43;;;;;;;3.35;1.88;;;25.10;37.70;;;;;;5049741;28;20032;-69
2021/04/02 00:18:09;;;;;;;3.55;1.90;;;25.10;37.70;;;;;;5070437;28;20033;-65
2021/04/02 00:20:35;;;;;;;3.38;1.75;;;25.10;37.70;;;;;;5065826;28;20486;-69
2021/04/02 00:23:01;;;;;;;3.83;1.60;;;25.10;37.80;;;;;;5086004;28;20028;-70
2021/04/02 00:25:27;;;;;;;2.80;1.65;;;25.10;37.70;;;;;;5088105;28;20069;-70
2021/04/02 00:27:52;;;;;;;2.78;1.67;;;25.10;37.70;;;;;;5076047;28;20054;-69
2021/04/02 00:30:24;;;;;;;2.33;1.55;;;25.10;37.70;;;;;;5068059;28;20082;-70
2021/04/02 00:32:49;;;;;;;4.38;1.65;;;25.10;37.70;;;;;;5081050;28;20021;-69
2021/04/02 00:35:15;;;;;;;2.63;1.42;;;25.00;37.70;;;;;;5080514;28;20147;-70
2021/04/02 00:37:41;;;;;;;2.67;1.50;;;25.00;37.70;;;;;;5068789;28;20067;-69
2021/04/02 00:40:14;;;;;;;2.45;1.50;;;25.00;37.70;;;;;;5078596;28;20129;-69
2021/04/02 00:42:40;;;;;;;2.70;1.50;;;25.00;37.70;;;;;;5087852;28;20103;-69
2021/04/02 00:45:06;;;;;;;2.45;1.48;;;25.00;37.70;;;;;;5083068;28;20067;-69
2021/04/02 00:47:32;;;;;;;2.55;1.70;;;24.90;37.70;;;;;;5068022;28;20044;-69
2021/04/02 00:49:58;;;;;;;2.45;1.52;;;24.90;37.70;;;;;;5085396;28;20125;-69
2021/04/02 00:52:23;;;;;;;2.60;1.50;;;24.90;37.70;;;;;;5076347;28;20058;-70
2021/04/02 00:54:49;;;;;;;2.05;1.40;;;24.90;37.80;;;;;;5074725;28;20039;-69
2021/04/02 00:57:15;;;;;;;2.17;1.40;;;24.80;37.70;;;;;;5085802;28;20438;-69
2021/04/02 00:59:42;;;;;;;1.85;1.30;;;24.80;37.80;;;;;;5068854;28;20036;-70
2021/04/02 01:02:07;;;;;;;2.45;1.50;;;24.80;37.80;;;;;;5072706;28;20158;-69
2021/04/02 01:04:33;;;;;;;2.75;1.40;;;24.80;37.80;;;;;;5080428;28;20480;-70
2021/04/02 01:06:59;;;;;;;3.20;1.55;;;24.80;37.80;;;;;;5067517;28;20028;-70
2021/04/02 01:09:25;;;;;;;2.08;1.40;;;24.80;37.80;;;;;;5079900;28;20036;-70
2021/04/02 01:11:50;;;;;;;2.72;1.52;;;24.70;37.80;;;;;;5067782;28;20040;-69
2021/04/02 01:14:16;;;;;;;2.15;1.40;;;24.80;37.80;;;;;;5084479;28;20048;-69
2021/04/02 01:16:44;;;;;;;2.67;1.60;;;24.70;37.80;;;;;;5072801;28;20428;-70
2021/04/02 01:19:13;;;;;;;3.15;1.60;;;24.70;37.80;;;;;;5078286;28;20126;-69
2021/04/02 01:21:42;;;;;;;;;;;24.70;37.80;;;;;;5051101;28;20115;-69
2021/04/02 01:24:23;;;;;;;2.57;1.47;;;24.70;37.80;;;;;;5075239;28;19915;-69
2021/04/02 01:26:55;;;;;;;2.58;1.40;;;24.60;37.80;;;;;;5086632;28;20297;-69
2021/04/02 01:29:28;;;;;;;2.60;1.42;;;24.60;37.80;;;;;;5082101;28;20655;-70
2021/04/02 01:32:00;;;;;;;2.40;1.40;;;24.60;38.30;;;;;;5075483;28;20055;-69
2021/04/02 01:34:35;;;;;;;2.58;1.70;;;24.60;37.80;;;;;;5078835;28;20020;-69
2021/04/02 01:37:25;;;;;;;3.17;1.67;;;24.60;37.80;;;;;;5086452;28;20027;-70
2021/04/02 01:39:53;;;;;;;2.83;1.73;;;24.60;37.90;;;;;;5045850;28;20124;-69
2021/04/02 01:42:20;;;;;;;3.00;1.40;;;24.60;37.90;;;;;;5086405;28;20024;-69
2021/04/02 01:44:48;;;;;;;2.60;1.58;;;24.50;37.80;;;;;;5087273;28;20020;-69
2021/04/02 01:47:16;;;;;;;3.17;1.67;;;24.50;37.90;;;;;;5087043;28;20145;-70
2021/04/02 01:49:43;;;;;;;2.60;1.42;;;24.60;38.10;;;;;;5066878;28;20431;-69
2021/04/02 01:52:10;;;;;;;2.25;1.40;;;24.50;37.90;;;;;;5073122;28;20028;-69
2021/04/02 01:54:37;;;;;;;2.35;1.35;;;24.50;37.90;;;;;;5073364;28;20032;-70
2021/04/02 01:57:06;;;;;;;2.20;1.45;;;24.50;37.90;;;;;;5085999;28;20469;-70
2021/04/02 01:59:34;;;;;;;2.05;1.40;;;24.50;37.90;;;;;;5075417;28;20017;-69
2021/04/02 02:02:01;;;;;;;3.60;1.50;;;24.50;37.90;;;;;;5083979;28;20525;-69
2021/04/02 02:04:28;;;;;;;2.30;1.40;;;24.40;37.90;;;;;;5068490;28;20020;-70
2021/04/02 02:06:54;;;;;;;2.00;1.40;;;24.40;37.90;;;;;;5086075;28;20032;-69
2021/04/02 02:09:50;;;;;;;1.88;1.33;;;24.40;37.90;;;;;;5066255;28;20111;-69
2021/04/02 02:12:18;;;;;;;3.38;1.45;;;24.40;37.90;;;;;;5061880;28;20039;-69
2021/04/02 02:14:49;;;;;;;2.05;1.40;;;24.40;37.90;;;;;;5086998;28;20143;-69
2021/04/02 02:17:19;;;;;;;2.47;1.45;;;24.40;38.00;;;;;;5064061;28;20027;-70
2021/04/02 02:19:46;;;;;;;2.20;1.35;;;24.40;38.00;;;;;;5075648;28;20114;-69
2021/04/02 02:22:13;;;;;;;2.13;1.33;;;24.30;37.90;;;;;;5060172;28;20110;-70
2021/04/02 02:24:40;;;;;;;2.60;1.50;;;24.30;38.00;;;;;;5073321;28;20119;-69
2021/04/02 02:27:07;;;;;;;1.77;1.20;;;24.30;38.00;;;;;;5083613;28;20249;-70
2021/04/02 02:29:34;;;;;;;2.60;1.40;;;24.30;38.00;;;;;;5087380;28;20028;-69
2021/04/02 02:32:01;;;;;;;2.85;1.42;;;24.30;38.00;;;;;;5077799;28;20415;-69
2021/04/02 02:34:27;;;;;;;2.30;1.40;;;24.30;38.50;;;;;;5083489;28;20708;-70
2021/04/02 02:36:53;;;;;;;3.17;1.40;;;24.30;38.00;;;;;;5064565;28;20025;-69
2021/04/02 02:39:19;;;;;;;2.80;1.63;;;24.30;38.00;;;;;;5085975;28;20031;-69
2021/04/02 02:41:45;;;;;;;2.33;1.35;;;24.30;38.00;;;;;;5081887;28;20424;-70
2021/04/02 02:44:12;;;;;;;2.33;1.38;;;24.20;38.00;;;;;;5087828;28;20402;-70
2021/04/02 02:46:37;;;;;;;2.80;1.50;;;24.20;38.00;;;;;;5069766;28;20020;-69
2021/04/02 02:49:16;;;;;;;2.42;1.40;;;24.20;38.00;;;;;;5071674;28;20453;-70
2021/04/02 02:51:43;;;;;;;1.90;1.33;;;24.20;38.10;;;;;;5074114;28;20024;-70
2021/04/02 02:54:16;;;;;;;3.42;1.30;;;24.20;38.10;;;;;;5080407;28;20115;-70
2021/04/02 02:56:45;;;;;;;2.03;1.30;;;24.20;38.10;;;;;;5082305;28;20039;-69
2021/04/02 02:59:15;;;;;;;1.92;1.20;;;24.10;38.00;;;;;;5087404;28;20017;-70
2021/04/02 03:01:42;;;;;;;2.70;1.30;;;24.10;38.10;;;;;;5080139;28;20036;-70
2021/04/02 03:04:09;;;;;;;2.20;1.25;;;24.10;38.00;;;;;;5078354;28;20025;-70
2021/04/02 03:06:39;;;;;;;2.80;1.40;;;24.10;38.00;;;;;;5046706;28;20032;-69
2021/04/02 03:09:07;;;;;;;3.10;1.25;;;24.10;38.10;;;;;;5075538;28;20023;-69
2021/04/02 03:11:33;;;;;;;2.28;1.50;;;24.10;38.10;;;;;;5059010;28;20021;-70
2021/04/02 03:14:00;;;;;;;2.92;1.20;;;24.00;38.00;;;;;;5077831;28;20182;-70
2021/04/02 03:16:27;;;;;;;2.03;1.40;;;24.10;38.10;;;;;;5076244;28;20055;-69
2021/04/02 03:18:55;;;;;;;2.58;1.40;;;24.10;38.10;;;;;;5071633;28;20398;-70
2021/04/02 03:21:22;;;;;;;2.95;1.40;;;24.00;38.10;;;;;;5071456;28;20555;-70
2021/04/02 03:23:50;;;;;;;2.30;1.30;;;24.00;38.10;;;;;;5085081;28;20027;-70
2021/04/02 03:26:17;;;;;;;2.15;1.30;;;24.00;38.10;;;;;;5084809;28;20028;-69
2021/04/02 03:28:44;;;;;;;2.75;1.40;;;24.00;38.20;;;;;;5056026;28;20114;-69
2021/04/02 03:31:13;;;;;;;2.88;1.42;;;24.00;38.20;;;;;;5102122;27;20040;-70
2021/04/02 03:33:49;;;;;;;2.00;1.30;;;24.00;38.20;;;;;;5081841;28;20047;-70
2021/04/02 03:36:17;;;;;;;2.00;1.20;;;23.90;38.70;;;;;;5089165;28;20082;-70
2021/04/02 03:38:45;;;;;;;2.38;1.38;;;23.90;38.10;;;;;;5089359;28;20139;-70
2021/04/02 03:41:19;;;;;;;1.95;1.20;;;23.90;38.20;;;;;;5090761;28;20663;-70
2021/04/02 03:43:47;;;;;;;2.00;1.20;;;23.90;38.20;;;;;;5088634;28;20188;-69
2021/04/02 03:46:15;;;;;;;1.85;1.40;;;23.90;38.20;;;;;;5082089;28;20086;-70
2021/04/02 03:48:42;;;;;;;2.38;1.30;;;23.90;38.20;;;;;;5089312;28;20057;-70
2021/04/02 03:51:09;;;;;;;1.85;1.20;;;23.90;38.30;;;;;;5089444;28;20073;-70
2021/04/02 03:53:42;;;;;;;2.00;1.20;;;23.90;38.30;;;;;;5085430;28;20016;-70
2021/04/02 03:56:11;;;;;;;1.83;1.10;;;23.90;38.30;;;;;;5078333;28;20040;-70
2021/04/02 03:58:40;;;;;;;2.00;1.20;;;23.90;38.30;;;;;;5077585;28;20032;-70
2021/04/02 04:01:11;;;;;;;2.25;1.30;;;23.80;38.30;;;;;;5086603;28;20047;-70
2021/04/02 04:03:39;;;;;;;2.08;1.30;;;23.80;38.30;;;;;;5104883;28;20023;-70
2021/04/02 04:06:07;;;;;;;1.63;1.08;;;23.80;38.30;;;;;;5072318;28;20040;-69
2021/04/02 04:08:34;;;;;;;2.05;1.20;;;23.80;38.30;;;;;;5059263;28;20032;-70
2021/04/02 04:11:01;;;;;;;1.95;1.30;;;23.80;38.30;;;;;;5069843;28;20029;-70
2021/04/02 04:13:29;;;;;;;2.33;1.55;;;23.80;38.40;;;;;;5083872;28;20024;-70
2021/04/02 04:15:57;;;;;;;2.25;1.33;;;23.80;38.30;;;;;;5076370;28;20515;-70
2021/04/02 04:18:24;;;;;;;2.30;1.40;;;23.70;38.30;;;;;;5051344;28;20174;-70
2021/04/02 04:20:54;;;;;;;2.50;1.40;;;23.70;38.30;;;;;;5067425;28;20043;-69
2021/04/02 04:23:21;;;;;;;2.50;1.40;;;23.70;38.40;;;;;;5077510;28;20130;-69
2021/04/02 04:25:51;;;;;;;1.55;1.20;;;23.70;38.40;;;;;;5087524;28;20028;-69
2021/04/02 04:28:19;;;;;;;2.38;1.20;;;23.70;38.40;;;;;;5069459;28;20471;-69
2021/04/02 04:30:48;;;;;;;2.45;1.27;;;23.70;38.40;;;;;;5089559;28;20064;-69
2021/04/02 04:33:14;;;;;;;1.70;1.20;;;23.70;38.40;;;;;;5081370;28;20043;-69
2021/04/02 04:35:40;;;;;;;1.83;1.10;;;23.70;38.40;;;;;;5079522;28;20063;-69
2021/04/02 04:38:07;;;;;;;1.88;1.20;;;23.60;38.40;;;;;;5069530;28;20033;-69
2021/04/02 04:40:34;;;;;;;2.45;1.40;;;23.60;38.40;;;;;;5089416;28;20047;-70
2021/04/02 04:43:01;;;;;;;1.83;1.30;;;23.70;38.40;;;;;;5076073;28;20036;-69
2021/04/02 04:45:28;;;;;;;1.98;1.20;;;23.60;38.40;;;;;;5056104;28;20029;-70
2021/04/02 04:47:54;;;;;;;1.80;1.00;;;23.60;38.50;;;;;;5068400;28;20028;-69
2021/04/02 04:50:20;;;;;;;2.28;1.27;;;23.60;38.50;;;;;;5080968;28;20094;-70
2021/04/02 04:52:52;;;;;;;2.20;1.23;;;23.60;38.50;;;;;;5086411;28;20020;-70
2021/04/02 04:55:20;;;;;;;1.92;1.38;;;23.60;38.50;;;;;;5073585;28;20040;-70
2021/04/02 04:57:48;;;;;;;1.92;1.10;;;23.60;38.50;;;;;;5076496;28;20028;-70
2021/04/02 05:00:15;;;;;;;1.40;1.00;;;23.60;38.50;;;;;;5086353;28;20159;-70
2021/04/02 05:02:45;;;;;;;1.90;1.20;;;23.60;38.50;;;;;;5088522;28;20428;-70
2021/04/02 05:05:23;;;;;;;1.63;1.10;;;23.60;38.60;;;;;;5082765;28;20028;-70
2021/04/02 05:07:51;;;;;;;1.52;1.10;;;23.60;38.60;;;;;;5083907;28;20143;-69
2021/04/02 05:10:19;;;;;;;1.92;1.30;;;23.50;38.50;;;;;;5088498;28;20026;-70
2021/04/02 05:12:45;;;;;;;2.30;1.33;;;23.50;38.50;;;;;;5088306;28;20111;-70
2021/04/02 05:15:12;;;;;;;1.88;1.00;;;23.50;38.50;;;;;;5078736;28;20406;-69
2021/04/02 05:17:39;;;;;;;1.92;1.10;;;23.50;38.50;;;;;;5086431;28;20107;-69
2021/04/02 05:20:06;;;;;;;2.13;1.10;;;23.50;38.60;;;;;;5049395;28;20033;-69
2021/04/02 05:22:31;;;;;;;1.83;1.20;;;23.50;38.60;;;;;;5076840;28;20395;-69
2021/04/02 05:24:57;;;;;;;2.00;1.20;;;23.50;38.60;;;;;;5075574;28;20031;-70
2021/04/02 05:27:23;;;;;;;1.58;1.13;;;23.50;38.60;;;;;;5074694;28;20051;-70
2021/04/02 05:29:48;;;;;;;1.50;1.20;;;23.40;38.60;;;;;;5070648;28;20418;-70
2021/04/02 05:32:14;;;;;;;1.88;1.20;;;23.40;38.60;;;;;;5080905;28;20040;-69
2021/04/02 05:34:40;;;;;;;1.42;1.02;;;23.40;38.60;;;;;;5084307;28;20047;-70
2021/04/02 05:37:05;;;;;;;2.03;1.13;;;23.40;38.60;;;;;;5078396;28;20036;-70
2021/04/02 05:39:31;;;;;;;2.00;1.20;;;23.40;38.60;;;;;;5085020;28;20028;-70
2021/04/02 05:42:02;;;;;;;1.80;1.20;;;23.40;38.60;;;;;;5088797;28;20028;-70
2021/04/02 05:44:35;;;;;;;1.90;1.20;;;23.40;38.60;;;;;;5080662;28;20016;-69
2021/04/02 05:47:07;;;;;;;1.67;1.20;;;23.40;38.70;;;;;;5049191;28;20032;-69
2021/04/02 05:49:33;;;;;;;1.90;1.20;;;23.40;38.60;;;;;;5069942;28;20098;-69
2021/04/02 05:52:01;;;;;;;1.63;1.15;;;23.40;38.60;;;;;;5069945;28;20031;-69
2021/04/02 05:54:34;;;;;;;2.63;1.40;;;23.30;38.60;;;;;;5076703;28;20099;-69
2021/04/02 05:57:00;;;;;;;1.23;0.90;;;23.30;38.70;;;;;;5071219;28;20059;-69
2021/04/02 05:59:26;;;;;;;1.88;1.10;;;23.30;38.60;;;;;;5083451;28;20104;-70
2021/04/02 06:01:52;;;;;;;1.80;1.20;;;23.40;38.70;;;;;;5076933;28;20037;-70
2021/04/02 06:04:19;;;;;;;2.33;1.20;;;23.30;38.70;;;;;;5048632;28;20068;-70
2021/04/02 06:06:45;;;;;;;2.13;1.13;;;23.30;38.70;;;;;;5081977;28;20638;-70
2021/04/02 06:09:12;;;;;;;1.27;1.00;;;23.30;38.70;;;;;;5086054;28;20052;-69
2021/04/02 06:11:38;;;;;;;1.65;1.10;;;23.30;38.70;;;;;;5086553;28;20028;-70
2021/04/02 06:14:04;;;;;;;1.42;1.00;;;23.30;38.70;;;;;;5083653;28;20048;-70
2021/04/02 06:16:32;;;;;;;1.80;1.02;;;23.30;38.70;;;;;;5083050;28;20016;-69
2021/04/02 06:19:06;;;;;;;1.23;1.00;;;23.30;38.80;;;;;;5080901;28;20028;-69
2021/04/02 06:21:43;;;;;;;1.45;1.00;;;23.30;38.80;;;;;;5060117;28;20147;-69
2021/04/02 06:24:12;;;;;;;2.10;1.13;;;23.30;38.80;;;;;;5075804;28;20051;-69
2021/04/02 06:26:38;;;;;;;1.05;0.88;;;23.30;38.80;;;;;;5070004;28;20028;-69
2021/04/02 06:29:03;;;;;;;2.17;1.30;;;23.30;38.80;;;;;;5066442;28;20079;-69
2021/04/02 06:31:34;;;;;;;1.45;1.00;;;23.30;38.80;;;;;;5073810;28;20633;-70
2021/04/02 06:34:05;;;;;;;2.00;1.10;;;23.30;38.80;;;;;;5075078;28;20525;-70
2021/04/02 06:36:31;;;;;;;1.65;1.00;;;23.20;38.80;;;;;;5048955;28;20115;-70
2021/04/02 06:39:03;;;;;;;1.33;0.90;;;23.20;38.70;;;;;;5073776;28;20455;-70
2021/04/02 06:41:30;;;;;;;1.73;1.13;;;23.20;38.70;;;;;;5083964;28;20023;-70
2021/04/02 06:43:59;;;;;;;1.60;1.00;;;23.20;38.80;;;;;;5076415;28;20050;-69
2021/04/02 06:46:33;;;;;;;2.13;1.20;;;23.20;38.70;;;;;;5052895;28;20540;-69
2021/04/02 06:49:09;;;;;;;1.50;1.13;;;23.20;38.80;;;;;;5068371;28;20028;-70
2021/04/02 06:51:36;;;;;;;1.90;1.10;;;23.20;38.80;;;;;;5068480;28;20043;-70
2021/04/02 06:54:04;;;;;;;1.65;1.15;;;23.20;38.80;;;;;;5077587;28;20020;-70
2021/04/02 06:56:31;;;;;;;1.52;1.13;;;23.20;38.80;;;;;;5052372;28;20032;-70
2021/04/02 06:58:59;;;;;;;1.67;1.00;;;23.20;38.80;;;;;;5084766;28;20550;-70
2021/04/02 07:01:28;;;;;;;1.38;1.00;;;23.20;38.80;;;;;;5068124;28;20051;-69
2021/04/02 07:03:54;;;;;;;1.35;1.00;;;23.20;38.80;;;;;;5082674;28;20550;-70
2021/04/02 07:06:21;;;;;;;1.63;1.02;;;23.10;38.80;;;;;;5076073;28;20032;-70
2021/04/02 07:08:48;;;;;;;1.60;1.00;;;23.10;38.80;;;;;;5085773;28;20024;-70
2021/04/02 07:11:14;;;;;;;1.77;1.10;;;23.10;38.80;;;;;;5075432;28;20107;-69
2021/04/02 07:13:52;;;;;;;1.42;1.10;;;23.10;38.80;;;;;;5062748;28;20126;-71
2021/04/02 07:16:19;;;;;;;1.45;1.00;;;23.10;38.80;;;;;;5082387;28;20067;-71
2021/04/02 07:18:45;;;;;;;1.70;1.00;;;23.10;38.80;;;;;;5085342;28;20042;-69
2021/04/02 07:21:13;;;;;;;1.13;0.90;;;23.10;38.80;;;;;;5077999;28;20036;-69
2021/04/02 07:23:40;;;;;;;1.33;0.90;;;23.10;38.80;;;;;;5084028;28;20051;-69
2021/04/02 07:26:06;;;;;;;1.70;1.10;;;23.10;38.80;;;;;;5051021;28;20459;-70
2021/04/02 07:28:32;;;;;;;1.50;1.02;;;23.10;38.80;;;;;;5082205;28;20054;-70
2021/04/02 07:30:58;;;;;;;1.50;1.00;;;23.10;38.80;;;;;;5073196;28;20514;-69
2021/04/02 07:33:25;;;;;;;1.60;1.10;;;23.10;38.80;;;;;;5077511;28;20039;-70
2021/04/02 07:36:01;;;;;;;1.40;0.90;;;23.10;38.80;;;;;;5063267;28;20123;-70
2021/04/02 07:38:32;;;;;;;1.48;1.00;;;23.10;38.80;;;;;;5085866;28;20032;-70
2021/04/02 07:40:58;;;;;;;1.95;1.17;;;23.10;38.80;;;;;;5085921;28;20066;-70
2021/04/02 07:43:31;;;;;;;1.60;1.10;;;23.10;38.80;;;;;;5078741;28;20029;-69
2021/04/02 07:46:27;;;;;;;1.13;0.90;;;23.10;38.90;;;;;;5079140;28;20059;-69
2021/04/02 07:49:05;;;;;;;1.65;1.10;;;23.10;38.90;;;;;;5082353;28;20502;-70
2021/04/02 07:51:48;;;;;;;1.90;1.00;;;23.10;38.90;;;;;;5084248;28;20020;-70
2021/04/02 07:54:22;;;;;;;2.00;1.10;;;23.00;38.80;;;;;;5079737;28;20027;-69
2021/04/02 07:56:57;;;;;;;1.73;0.98;;;23.00;38.80;;;;;;5080702;28;20039;-69
2021/04/02 07:59:47;;;;;;;1.58;1.08;;;23.00;38.80;;;;;;5090829;28;20032;-70
2021/04/02 08:02:16;;;;;;;2.03;1.00;;;23.00;38.80;;;;;;5076110;28;20036;-70
2021/04/02 08:04:53;;;;;;;;;;;23.00;38.80;;;;;;5080388;28;20024;-69
2021/04/02 08:07:36;;;;;;;1.63;1.10;;;23.00;38.80;;;;;;5079705;28;19916;-69
2021/04/02 08:10:06;;;;;;;1.42;1.00;;;23.00;38.80;;;;;;5082823;28;20035;-69
2021/04/02 08:12:32;;;;;;;1.48;1.00;;;23.00;38.80;;;;;;5087458;28;20035;-69
2021/04/02 08:15:04;;;;;;;1.35;1.02;;;23.00;38.80;;;;;;5085142;28;20038;-69
2021/04/02 08:17:30;;;;;;;1.40;0.95;;;23.00;38.80;;;;;;5087376;28;20024;-69
2021/04/02 08:20:19;;;;;;;1.23;0.98;;;23.00;38.80;;;;;;5086206;28;20043;-69
2021/04/02 08:22:48;;;;;;;1.40;1.00;;;23.00;38.80;;;;;;5088116;28;20107;-69
2021/04/02 08:25:19;;;;;;;1.38;1.10;;;23.00;38.80;;;;;;5076262;28;20036;-69
2021/04/02 08:27:46;;;;;;;1.73;1.00;;;23.00;38.80;;;;;;5074437;28;20143;-69
2021/04/02 08:30:14;;;;;;;2.03;1.02;;;23.00;38.80;;;;;;5085829;28;20025;-69
2021/04/02 08:32:43;;;;;;;1.73;1.10;;;23.00;38.70;;;;;;5068991;28;20021;-69
2021/04/02 08:35:11;;;;;;;1.73;1.02;;;23.00;38.80;;;;;;5079309;28;20143;-69
2021/04/02 08:37:37;;;;;;;1.08;0.85;;;23.00;38.80;;;;;;5086285;28;20035;-69
2021/04/02 08:40:09;;;;;;;1.50;1.00;;;23.00;38.80;;;;;;5085580;28;20410;-69
2021/04/02 08:42:35;;;;;;;1.17;0.90;;;23.00;38.80;;;;;;5061584;28;20036;-69
2021/04/02 08:45:09;;;;;;;1.52;0.90;;;22.90;38.70;;;;;;5082661;28;20036;-69
2021/04/02 08:47:38;;;;;;;1.40;0.90;;;23.00;38.80;;;;;;5087503;28;20046;-69
2021/04/02 08:50:05;;;;;;;;;;;22.90;38.70;;;;;;5088899;28;20016;-69
2021/04/02 08:52:31;;;;;;;2.33;1.10;;;23.00;38.80;;;;;;5067980;28;19912;-69
2021/04/02 08:55:06;;;;;;;1.58;0.82;;;22.90;38.70;;;;;;5060980;28;20029;-69
2021/04/02 08:57:33;;;;;;;1.27;0.90;;;22.90;38.70;;;;;;5083494;28;20028;-69
2021/04/02 09:00:00;;;;;;;1.60;0.90;;;22.90;38.80;;;;;;5084767;28;20031;-68
2021/04/02 09:02:28;;;;;;;1.42;0.85;;;22.90;38.80;;;;;;5076573;28;20032;-70
2021/04/02 09:04:54;;;;;;;1.38;1.00;;;22.90;38.80;;;;;;5077208;28;20115;-70
2021/04/02 09:07:20;;;;;;;1.20;0.80;;;22.90;38.80;;;;;;5081264;28;20031;-68
2021/04/02 09:09:47;;;;;;;1.95;1.08;;;22.90;38.70;;;;;;5073561;28;20024;-68
2021/04/02 09:12:18;;;;;;;1.17;0.93;;;22.90;38.80;;;;;;5068396;28;20039;-70
2021/04/02 09:14:49;;;;;;;1.55;1.00;;;22.90;38.80;;;;;;5078494;28;20027;-70
2021/04/02 09:17:20;;;;;;;1.73;1.00;;;22.90;38.80;;;;;;5068827;28;20046;-70
2021/04/02 09:19:46;;;;;;;1.67;0.90;;;22.90;38.80;;;;;;5083583;28;21727;-70
2021/04/02 09:22:13;;;;;;;1.23;0.85;;;22.90;38.80;;;;;;5086476;28;20027;-70
2021/04/02 09:24:41;;;;;;;1.33;0.90;;;22.90;38.80;;;;;;5082374;28;20066;-70
2021/04/02 09:27:12;;;;;;;1.20;0.90;;;22.90;38.80;;;;;;5077938;28;20027;-68
2021/04/02 09:29:38;;;;;;;1.63;1.08;;;22.90;38.80;;;;;;5082896;28;20020;-68
2021/04/02 09:32:05;;;;;;;1.77;1.00;;;22.90;38.80;;;;;;5085236;28;20055;-70
2021/04/02 09:34:31;;;;;;;1.15;0.85;;;22.90;38.90;;;;;;5080666;28;20368;-70
2021/04/02 09:36:58;;;;;;;1.23;0.82;;;22.90;38.90;;;;;;5087385;28;20028;-68
2021/04/02 09:39:24;;;;;;;1.55;0.90;;;22.90;38.90;;;;;;5068571;28;20016;-68
2021/04/02 09:41:53;;;;;;;1.63;0.90;;;22.90;38.90;;;;;;5087639;28;20027;-68
2021/04/02 09:44:21;;;;;;;1.40;0.93;;;22.90;39.00;;;;;;5081972;28;20021;-69
2021/04/02 09:46:49;;;;;;;1.40;0.90;;;22.90;38.90;;;;;;5082361;28;20020;-68
2021/04/02 09:49:23;;;;;;;0.95;0.80;;;22.90;39.00;;;;;;5061749;28;20028;-67
2021/04/02 09:51:55;;;;;;;0.93;0.80;;;22.90;39.00;;;;;;5087203;28;20042;-68
2021/04/02 09:54:24;;;;;;;1.17;0.90;;;22.90;39.20;;;;;;5086611;28;20030;-68
2021/04/02 09:56:57;;;;;;;2.05;0.90;;;22.90;39.00;;;;;;5070986;28;20376;-68
2021/04/02 09:59:23;;;;;;;1.05;0.82;;;22.90;39.00;;;;;;5086616;28;20040;-68
2021/04/02 10:01:49;;;;;;;1.67;0.90;;;22.90;39.00;;;;;;5069033;28;20044;-68
2021/04/02 10:04:16;;;;;;;1.85;0.70;;;22.90;39.00;;;;;;5084839;28;20603;-68
2021/04/02 10:06:42;;;;;;;1.40;0.80;;;22.80;38.90;;;;;;5064438;28;20576;-68
2021/04/02 10:09:08;;;;;;;1.00;0.90;;;22.80;39.00;;;;;;5061786;28;20020;-68
2021/04/02 10:11:36;;;;;;;1.00;0.70;;;22.90;39.60;;;;;;5063785;28;20029;-68
2021/04/02 10:14:02;;;;;;;1.08;0.80;;;22.90;39.10;;;;;;5081709;28;20048;-68
2021/04/02 10:16:28;;;;;;;2.08;0.90;;;22.90;39.10;;;;;;5075274;28;20149;-68
2021/04/02 10:18:54;;;;;;;1.60;0.85;;;22.90;39.20;;;;;;5081487;28;20078;-68
2021/04/02 10:21:20;;;;;;;1.23;0.90;;;22.90;39.10;;;;;;5067774;28;20039;-68
2021/04/02 10:23:47;;;;;;;1.48;0.90;;;22.80;39.10;;;;;;5056288;28;20099;-68
2021/04/02 10:26:14;;;;;;;1.25;0.80;;;22.90;39.20;;;;;;5078050;28;20381;-68
2021/04/02 10:28:40;;;;;;;1.08;0.80;;;22.80;39.10;;;;;;5084855;28;20085;-70
2021/04/02 10:31:06;;;;;;;1.83;0.82;;;22.90;39.20;;;;;;5085902;28;20062;-68
2021/04/02 10:33:32;;;;;;;1.52;0.80;;;22.90;39.20;;;;;;5084709;28;20032;-68
2021/04/02 10:35:57;;;;;;;1.88;0.80;;;22.80;39.10;;;;;;5080877;28;20047;-68
2021/04/02 10:38:24;;;;;;;1.15;0.80;;;22.90;39.20;;;;;;5084844;28;20050;-68
2021/04/02 10:40:50;;;;;;;1.60;0.82;;;22.80;39.20;;;;;;5071153;28;20063;-68
2021/04/02 10:43:15;;;;;;;1.90;0.90;;;22.90;39.20;;;;;;5076140;28;20124;-69
2021/04/02 10:45:41;;;;;;;1.40;0.90;;;22.90;39.20;;;;;;5093206;28;20147;-69
2021/04/02 10:48:08;;;;;;;1.63;0.80;;;22.80;39.10;;;;;;5092437;28;20454;-69
2021/04/02 10:50:34;;;;;;;1.45;0.90;;;22.90;39.10;;;;;;5085118;28;20028;-68
2021/04/02 10:53:00;;;;;;;1.58;0.88;;;22.90;39.20;;;;;;5084513;28;20459;-69
2021/04/02 10:55:29;;;;;;;1.52;0.80;;;22.90;39.10;;;;;;5076987;28;20116;-68
2021/04/02 10:57:55;;;;;;;2.75;0.80;;;22.80;39.00;;;;;;5082989;28;20035;-68
2021/04/02 11:00:22;;;;;;;1.02;0.80;;;22.90;39.10;;;;;;5085594;28;20031;-68
2021/04/02 11:02:48;;;;;;;1.38;0.90;;;22.80;39.00;;;;;;5078041;28;20130;-68
2021/04/02 11:05:14;;;;;;;1.38;0.80;;;22.80;39.00;;;;;;5075326;28;20132;-68
2021/04/02 11:07:40;;;;;;;1.38;0.90;;;22.80;39.00;;;;;;5086040;28;20099;-69
2021/04/02 11:10:07;;;;;;;1.20;0.90;;;22.80;39.00;;;;;;5083645;28;20141;-69
2021/04/02 11:12:33;;;;;;;1.33;0.90;;;22.80;38.90;;;;;;5079062;28;20024;-68
2021/04/02 11:14:59;;;;;;;3.22;1.58;;;22.80;38.70;;;;;;5065321;28;20189;-68
2021/04/02 11:17:26;;;;;;;2.72;1.85;;;22.80;36.60;;;;;;5084233;28;20024;-69
2021/04/02 11:19:53;;;;;;;3.55;2.00;;;22.80;35.10;;;;;;5083113;28;20440;-68
2021/04/02 11:22:19;;;;;;;2.97;2.05;;;22.70;33.90;;;;;;5083280;28;20070;-69
2021/04/02 11:24:45;;;;;;;3.75;2.13;;;22.60;33.40;;;;;;5081792;28;20035;-69
2021/04/02 11:27:11;;;;;;;3.95;2.28;;;22.60;32.80;;;;;;5050522;28;20036;-67
2021/04/02 11:29:38;;;;;;;3.25;2.10;;;22.50;32.40;;;;;;5068240;28;20024;-69
2021/04/02 11:32:06;;;;;;;3.35;2.08;;;22.50;32.30;;;;;;5086124;28;20039;-68
2021/04/02 11:34:31;;;;;;;3.60;2.30;;;22.40;32.20;;;;;;5082068;28;20099;-68
2021/04/02 11:36:58;;;;;;;3.22;2.17;;;22.40;31.80;;;;;;5086178;28;20123;-68
2021/04/02 11:39:25;;;;;;;3.72;2.35;;;22.30;31.70;;;;;;5078346;28;20040;-69
2021/04/02 11:41:51;;;;;;;3.28;2.10;;;22.30;31.80;;;;;;5087978;28;20324;-71
2021/04/02 11:44:17;;;;;;;3.08;2.20;;;22.20;31.50;;;;;;5087515;28;20098;-68
2021/04/02 11:46:42;;;;;;;3.15;2.10;;;22.20;31.70;;;;;;5095150;28;20584;-68
2021/04/02 11:49:08;;;;;;;3.42;2.40;;;22.20;31.60;;;;;;5086714;28;20101;-70
2021/04/02 11:51:34;;;;;;;2.70;1.80;;;22.10;31.30;;;;;;5088146;28;20039;-69
2021/04/02 11:54:00;;;;;;;3.50;2.13;;;22.10;31.50;;;;;;5083595;28;20111;-69
2021/04/02 11:56:26;;;;;;;2.97;1.85;;;22.10;32.10;;;;;;5068472;28;20142;-69
2021/04/02 11:58:52;;;;;;;2.78;1.73;;;22.10;31.80;;;;;;5069805;28;20039;-69
2021/04/02 12:01:18;;;;;;;2.05;1.30;;;22.10;32.20;;;;;;5078596;28;20035;-69
2021/04/02 12:03:43;;;;;;;1.85;1.20;;;22.10;32.50;;;;;;5087189;28;20031;-69
2021/04/02 12:06:09;;;;;;;2.28;1.23;;;22.10;32.80;;;;;;5079507;28;20024;-69
2021/04/02 12:08:35;;;;;;;1.77;1.10;;;22.10;33.00;;;;;;5088143;28;20028;-70
2021/04/02 12:11:01;;;;;;;2.10;1.13;;;22.20;33.30;;;;;;5068422;28;20028;-69
2021/04/02 12:13:27;;;;;;;1.40;0.90;;;22.20;33.50;;;;;;5070871;28;20158;-69
2021/04/02 12:15:52;;;;;;;1.55;0.90;;;22.20;33.70;;;;;;5062460;28;20080;-69
2021/04/02 12:18:18;;;;;;;1.45;0.80;;;22.20;34.50;;;;;;5069566;28;20506;-69
2021/04/02 12:20:44;;;;;;;1.80;0.90;;;22.30;34.20;;;;;;5086620;28;20027;-69
2021/04/02 12:23:10;;;;;;;1.40;0.82;;;22.30;34.30;;;;;;5086891;28;20031;-68
2021/04/02 12:25:35;;;;;;;1.58;0.90;;;22.20;34.40;;;;;;5075099;28;20028;-70
2021/04/02 12:28:01;;;;;;;0.80;0.70;;;22.20;34.50;;;;;;5085242;28;20090;-69
2021/04/02 12:30:27;;;;;;;1.35;0.80;;;22.30;34.70;;;;;;5085373;28;20122;-69
2021/04/02 12:32:53;;;;;;;1.30;0.90;;;22.30;34.90;;;;;;5068815;28;20513;-69
2021/04/02 12:35:18;;;;;;;1.55;0.90;;;22.30;35.00;;;;;;5067993;28;20058;-68
2021/04/02 12:37:44;;;;;;;1.45;0.82;;;22.30;35.00;;;;;;5087640;28;20040;-69
2021/04/02 12:40:13;;;;;;;1.55;0.70;;;22.30;35.20;;;;;;5086196;28;20535;-68
2021/04/02 12:42:39;;;;;;;;;;;22.30;35.30;;;;;;5087147;28;20529;-68
2021/04/02 12:45:07;;;;;;;1.30;0.80;;;22.30;35.40;;;;;;5075774;28;20006;-69
2021/04/02 12:47:32;;;;;;;5.03;1.95;;;22.30;35.40;;;;;;5076448;28;20382;-70
2021/04/02 12:49:58;;;;;;;5.97;2.70;;;22.30;35.50;;;;;;5081641;28;20034;-70
2021/04/02 12:52:24;;;;;;;8.52;4.20;;;22.30;35.50;;;;;;5101816;28;20116;-69